NJE702A EGGW-EGJB
Flight info
| Callsign | NJE702A |
|---|---|
| Flight time | 0h 36m |
| Altitude | 28000 |
| Route | RODNI DCT COWLY Q41 SAM N63 LELNA DCT ALD |
| Aircraft | CL60/M-SADE3FGHIJ3J4J7P2RWXY/HB1D1 |
Departure
| Time | 2026-04-25 23:17 |
|---|---|
| Airport | London Luton Airport (EGGW) |
Arrival
| Time | 2026-04-25 23:54 |
|---|---|
| Airport | Guernsey Airport (EGJB) |
| Time | Latitude | Longitude | Altitude | Speed | Heading |
|---|---|---|---|---|---|
| 2026-04-25 22:58 | 51.87747 | -0.37980 | 524 ft | 0 kts | 215° |
| 2026-04-25 23:14 | 51.87738 | -0.37978 | 524 ft | 2 kts | 123° |
| 2026-04-25 23:14 | 51.87753 | -0.37944 | 525 ft | 10 kts | 40° |
| 2026-04-25 23:14 | 51.87772 | -0.37811 | 525 ft | 13 kts | 115° |
| 2026-04-25 23:15 | 51.87726 | -0.37652 | 524 ft | 17 kts | 115° |
| 2026-04-25 23:15 | 51.87658 | -0.37482 | 525 ft | 19 kts | 148° |
| 2026-04-25 23:15 | 51.87529 | -0.37481 | 526 ft | 14 kts | 217° |
| 2026-04-25 23:15 | 51.87487 | -0.37643 | 527 ft | 19 kts | 255° |
| 2026-04-25 23:16 | 51.87447 | -0.37874 | 526 ft | 22 kts | 255° |
| 2026-04-25 23:16 | 51.87379 | -0.38056 | 524 ft | 19 kts | 206° |
| 2026-04-25 23:16 | 51.87270 | -0.38092 | 522 ft | 8 kts | 138° |
| 2026-04-25 23:16 | 51.87259 | -0.38027 | 523 ft | 3 kts | 79° |
| 2026-04-25 23:17 | 51.87304 | -0.37766 | 527 ft | 67 kts | 75° |
| 2026-04-25 23:17 | 51.87524 | -0.36489 | 568 ft | 158 kts | 75° |
| 2026-04-25 23:17 | 51.87848 | -0.34687 | 1373 ft | 178 kts | 73° |
| 2026-04-25 23:17 | 51.88205 | -0.32710 | 2080 ft | 188 kts | 75° |
| 2026-04-25 23:18 | 51.88587 | -0.30551 | 2646 ft | 211 kts | 74° |
| 2026-04-25 23:18 | 51.89003 | -0.28195 | 3206 ft | 220 kts | 73° |
| 2026-04-25 23:18 | 51.89361 | -0.25767 | 3787 ft | 222 kts | 86° |
| 2026-04-25 23:18 | 51.88934 | -0.23372 | 4379 ft | 231 kts | 126° |
| 2026-04-25 23:19 | 51.87618 | -0.21925 | 4967 ft | 239 kts | 163° |
| 2026-04-25 23:19 | 51.85954 | -0.21959 | 5568 ft | 244 kts | 200° |
| 2026-04-25 23:19 | 51.84609 | -0.23578 | 6167 ft | 246 kts | 238° |
| 2026-04-25 23:19 | 51.84015 | -0.26176 | 6778 ft | 245 kts | 258° |
| 2026-04-25 23:20 | 51.83626 | -0.28832 | 7355 ft | 246 kts | 258° |
| 2026-04-25 23:20 | 51.83219 | -0.31532 | 7934 ft | 251 kts | 258° |
| 2026-04-25 23:20 | 51.82775 | -0.34480 | 8505 ft | 289 kts | 257° |
| 2026-04-25 23:20 | 51.82265 | -0.37847 | 9050 ft | 323 kts | 257° |
| 2026-04-25 23:21 | 51.81709 | -0.41492 | 9621 ft | 336 kts | 257° |
| 2026-04-25 23:21 | 51.81145 | -0.45186 | 10191 ft | 339 kts | 257° |
| 2026-04-25 23:21 | 51.80583 | -0.48898 | 10768 ft | 341 kts | 257° |
| 2026-04-25 23:21 | 51.80017 | -0.52637 | 11354 ft | 343 kts | 257° |
| 2026-04-25 23:22 | 51.79449 | -0.56374 | 11980 ft | 345 kts | 257° |
| 2026-04-25 23:22 | 51.78872 | -0.60156 | 12602 ft | 349 kts | 257° |
| 2026-04-25 23:22 | 51.78282 | -0.64021 | 13245 ft | 352 kts | 257° |
| 2026-04-25 23:23 | 51.77097 | -0.71746 | 14491 ft | 358 kts | 257° |
| 2026-04-25 23:23 | 51.76488 | -0.75654 | 15122 ft | 361 kts | 255° |
| 2026-04-25 23:23 | 51.75433 | -0.79309 | 15766 ft | 367 kts | 236° |
| 2026-04-25 23:23 | 51.73794 | -0.82576 | 16390 ft | 373 kts | 232° |
| 2026-04-25 23:24 | 51.72132 | -0.85794 | 17017 ft | 374 kts | 232° |
| 2026-04-25 23:24 | 51.70450 | -0.89067 | 17656 ft | 376 kts | 232° |
| 2026-04-25 23:24 | 51.68797 | -0.92303 | 18277 ft | 378 kts | 233° |
| 2026-04-25 23:24 | 51.67092 | -0.95668 | 18923 ft | 385 kts | 233° |
| 2026-04-25 23:25 | 51.65398 | -0.99067 | 19551 ft | 394 kts | 234° |
| 2026-04-25 23:25 | 51.63643 | -1.02563 | 20184 ft | 402 kts | 231° |
| 2026-04-25 23:25 | 51.61545 | -1.05590 | 20830 ft | 411 kts | 217° |
| 2026-04-25 23:25 | 51.58981 | -1.07603 | 21458 ft | 419 kts | 200° |
| 2026-04-25 23:26 | 51.56136 | -1.08867 | 22080 ft | 424 kts | 197° |
| 2026-04-25 23:26 | 51.53276 | -1.10084 | 22705 ft | 427 kts | 198° |
| 2026-04-25 23:26 | 51.50380 | -1.11323 | 23343 ft | 429 kts | 198° |
| 2026-04-25 23:26 | 51.47457 | -1.12571 | 23994 ft | 432 kts | 198° |
| 2026-04-25 23:27 | 51.44523 | -1.13824 | 24630 ft | 436 kts | 198° |
| 2026-04-25 23:27 | 51.41575 | -1.15080 | 25279 ft | 439 kts | 198° |
| 2026-04-25 23:27 | 51.38615 | -1.16340 | 25914 ft | 444 kts | 198° |
| 2026-04-25 23:27 | 51.35609 | -1.17619 | 26550 ft | 447 kts | 198° |
| 2026-04-25 23:28 | 51.32573 | -1.18908 | 27183 ft | 450 kts | 198° |
| 2026-04-25 23:28 | 51.29543 | -1.20193 | 27811 ft | 452 kts | 198° |
| 2026-04-25 23:28 | 51.26499 | -1.21484 | 28184 ft | 459 kts | 198° |
| 2026-04-25 23:29 | 51.20191 | -1.24152 | 28234 ft | 469 kts | 198° |
| 2026-04-25 23:29 | 51.13853 | -1.26822 | 28236 ft | 468 kts | 198° |
| 2026-04-25 23:30 | 51.07527 | -1.29480 | 28239 ft | 468 kts | 198° |
| 2026-04-25 23:30 | 51.01215 | -1.32126 | 28240 ft | 469 kts | 198° |
| 2026-04-25 23:31 | 50.94886 | -1.35030 | 28246 ft | 464 kts | 207° |
| 2026-04-25 23:31 | 50.89094 | -1.39612 | 28240 ft | 462 kts | 210° |
| 2026-04-25 23:32 | 50.83373 | -1.44184 | 28237 ft | 462 kts | 210° |
| 2026-04-25 23:32 | 50.77583 | -1.48794 | 28237 ft | 461 kts | 210° |
| 2026-04-25 23:33 | 50.71832 | -1.53360 | 28233 ft | 461 kts | 210° |
| 2026-04-25 23:33 | 50.66047 | -1.57941 | 28232 ft | 461 kts | 210° |
| 2026-04-25 23:34 | 50.60274 | -1.62537 | 28231 ft | 462 kts | 210° |
| 2026-04-25 23:34 | 50.54519 | -1.67075 | 28229 ft | 461 kts | 209° |
| 2026-04-25 23:35 | 50.48881 | -1.71482 | 28173 ft | 445 kts | 209° |
| 2026-04-25 23:35 | 50.43338 | -1.75808 | 27756 ft | 441 kts | 209° |
| 2026-04-25 23:35 | 50.40598 | -1.77944 | 27320 ft | 437 kts | 209° |
| 2026-04-25 23:36 | 50.37892 | -1.80050 | 26897 ft | 432 kts | 209° |
| 2026-04-25 23:36 | 50.36093 | -1.81449 | 26613 ft | 429 kts | 209° |
| 2026-04-25 23:36 | 50.32521 | -1.84225 | 25988 ft | 426 kts | 209° |
| 2026-04-25 23:36 | 50.29906 | -1.86254 | 25351 ft | 420 kts | 209° |
| 2026-04-25 23:37 | 50.27305 | -1.88270 | 24707 ft | 414 kts | 208° |
| 2026-04-25 23:37 | 50.24736 | -1.90258 | 24055 ft | 408 kts | 208° |
| 2026-04-25 23:37 | 50.22208 | -1.92213 | 23407 ft | 403 kts | 208° |
| 2026-04-25 23:37 | 50.19714 | -1.94141 | 22760 ft | 398 kts | 208° |
| 2026-04-25 23:38 | 50.17231 | -1.96057 | 22107 ft | 393 kts | 208° |
| 2026-04-25 23:38 | 50.14815 | -1.97920 | 21456 ft | 389 kts | 208° |
| 2026-04-25 23:38 | 50.12392 | -1.99786 | 20802 ft | 384 kts | 208° |
| 2026-04-25 23:38 | 50.09999 | -2.01627 | 20145 ft | 381 kts | 208° |
| 2026-04-25 23:39 | 50.07624 | -2.03453 | 19492 ft | 377 kts | 208° |
| 2026-04-25 23:39 | 50.05270 | -2.05260 | 18837 ft | 374 kts | 208° |
| 2026-04-25 23:39 | 50.02967 | -2.07026 | 18195 ft | 371 kts | 208° |
| 2026-04-25 23:39 | 50.00639 | -2.08810 | 17531 ft | 368 kts | 208° |
| 2026-04-25 23:40 | 49.98324 | -2.10501 | 16882 ft | 366 kts | 202° |
| 2026-04-25 23:40 | 49.95901 | -2.11710 | 16224 ft | 363 kts | 202° |
| 2026-04-25 23:40 | 49.93779 | -2.13754 | 15585 ft | 356 kts | 225° |
| 2026-04-25 23:40 | 49.92222 | -2.16719 | 14961 ft | 351 kts | 235° |
| 2026-04-25 23:41 | 49.90818 | -2.19780 | 14450 ft | 345 kts | 236° |
| 2026-04-25 23:41 | 49.89436 | -2.22831 | 13941 ft | 339 kts | 236° |
| 2026-04-25 23:41 | 49.88083 | -2.25838 | 13507 ft | 331 kts | 236° |
| 2026-04-25 23:41 | 49.86772 | -2.28756 | 13130 ft | 323 kts | 236° |
| 2026-04-25 23:42 | 49.85498 | -2.31589 | 12759 ft | 319 kts | 236° |
| 2026-04-25 23:42 | 49.84226 | -2.34413 | 12383 ft | 321 kts | 236° |
| 2026-04-25 23:42 | 49.82939 | -2.37275 | 12001 ft | 320 kts | 236° |
| 2026-04-25 23:42 | 49.81648 | -2.40137 | 11620 ft | 318 kts | 236° |
| 2026-04-25 23:43 | 49.80385 | -2.42937 | 11244 ft | 317 kts | 236° |
| 2026-04-25 23:43 | 49.79108 | -2.45763 | 10863 ft | 315 kts | 236° |
| 2026-04-25 23:43 | 49.77862 | -2.48520 | 10491 ft | 313 kts | 236° |
| 2026-04-25 23:43 | 49.76600 | -2.51315 | 10111 ft | 311 kts | 236° |
| 2026-04-25 23:44 | 49.75361 | -2.54060 | 9732 ft | 310 kts | 236° |
| 2026-04-25 23:44 | 49.74131 | -2.56791 | 9355 ft | 307 kts | 236° |
| 2026-04-25 23:44 | 49.72918 | -2.59490 | 8983 ft | 306 kts | 236° |
| 2026-04-25 23:44 | 49.71708 | -2.62177 | 8606 ft | 305 kts | 236° |
| 2026-04-25 23:45 | 49.70491 | -2.64873 | 8232 ft | 305 kts | 236° |
| 2026-04-25 23:45 | 49.69276 | -2.67556 | 7854 ft | 304 kts | 235° |
| 2026-04-25 23:45 | 49.68067 | -2.70220 | 7480 ft | 302 kts | 235° |
| 2026-04-25 23:45 | 49.66864 | -2.72858 | 7167 ft | 293 kts | 235° |
| 2026-04-25 23:46 | 49.65713 | -2.75363 | 7180 ft | 265 kts | 235° |
| 2026-04-25 23:46 | 49.64820 | -2.77300 | 7797 ft | 190 kts | 235° |
| 2026-04-25 23:46 | 49.64074 | -2.78910 | 7195 ft | 188 kts | 235° |
| 2026-04-25 23:46 | 49.63336 | -2.80493 | 6350 ft | 195 kts | 235° |
| 2026-04-25 23:47 | 49.62545 | -2.82192 | 5715 ft | 195 kts | 235° |
| 2026-04-25 23:47 | 49.61688 | -2.83987 | 5491 ft | 224 kts | 230° |
| 2026-04-25 23:47 | 49.60339 | -2.85314 | 5267 ft | 236 kts | 195° |
| 2026-04-25 23:47 | 49.58686 | -2.85481 | 5074 ft | 238 kts | 179° |
| 2026-04-25 23:48 | 49.57023 | -2.85445 | 4778 ft | 235 kts | 178° |
| 2026-04-25 23:48 | 49.55412 | -2.85415 | 4336 ft | 228 kts | 178° |
| 2026-04-25 23:48 | 49.53846 | -2.85397 | 3944 ft | 219 kts | 178° |
| 2026-04-25 23:48 | 49.52342 | -2.85389 | 3627 ft | 209 kts | 178° |
| 2026-04-25 23:49 | 49.50899 | -2.85387 | 3308 ft | 202 kts | 178° |
| 2026-04-25 23:49 | 49.49504 | -2.85394 | 2985 ft | 199 kts | 178° |
| 2026-04-25 23:49 | 49.48134 | -2.85401 | 2678 ft | 196 kts | 176° |
| 2026-04-25 23:49 | 49.46880 | -2.84780 | 2461 ft | 188 kts | 137° |
| 2026-04-25 23:50 | 49.46078 | -2.83219 | 2339 ft | 186 kts | 121° |
| 2026-04-25 23:50 | 49.45370 | -2.81528 | 2226 ft | 187 kts | 120° |
| 2026-04-25 23:50 | 49.44670 | -2.79837 | 2102 ft | 186 kts | 120° |
| 2026-04-25 23:50 | 49.43984 | -2.78169 | 1981 ft | 175 kts | 120° |
| 2026-04-25 23:51 | 49.43367 | -2.76658 | 1845 ft | 164 kts | 118° |
| 2026-04-25 23:51 | 49.42939 | -2.75035 | 1725 ft | 161 kts | 102° |
| 2026-04-25 23:51 | 49.42853 | -2.73320 | 1619 ft | 159 kts | 87° |
| 2026-04-25 23:51 | 49.42982 | -2.71618 | 1521 ft | 159 kts | 81° |
| 2026-04-25 23:52 | 49.43164 | -2.69937 | 1425 ft | 152 kts | 81° |
| 2026-04-25 23:52 | 49.43292 | -2.68465 | 1282 ft | 130 kts | 84° |
| 2026-04-25 23:52 | 49.43363 | -2.67098 | 1063 ft | 123 kts | 87° |
| 2026-04-25 23:52 | 49.43382 | -2.65801 | 869 ft | 121 kts | 91° |
| 2026-04-25 23:53 | 49.43382 | -2.64515 | 685 ft | 120 kts | 87° |
| 2026-04-25 23:53 | 49.43422 | -2.63250 | 568 ft | 118 kts | 89° |
| 2026-04-25 23:53 | 49.43451 | -2.61970 | 429 ft | 119 kts | 88° |
| 2026-04-25 23:53 | 49.43481 | -2.60696 | 312 ft | 110 kts | 88° |
| 2026-04-25 23:54 | 49.43505 | -2.59842 | 332 ft | 44 kts | 87° |
| 2026-04-25 23:54 | 49.43517 | -2.59410 | 338 ft | 36 kts | 88° |
| 2026-04-25 23:54 | 49.43503 | -2.59212 | 339 ft | 12 kts | 153° |
| 2026-04-25 23:54 | 49.43408 | -2.59193 | 340 ft | 11 kts | 181° |
| 2026-04-25 23:55 | 49.43372 | -2.59249 | 339 ft | 9 kts | 267° |
| 2026-04-25 23:55 | 49.43370 | -2.59381 | 339 ft | 14 kts | 269° |
| 2026-04-25 23:55 | 49.43362 | -2.59565 | 337 ft | 18 kts | 267° |
| 2026-04-25 23:55 | 49.43354 | -2.59755 | 334 ft | 14 kts | 251° |
| 2026-04-25 23:56 | 49.43344 | -2.59902 | 331 ft | 13 kts | 267° |
| 2026-04-25 23:56 | 49.43306 | -2.59929 | 331 ft | 8 kts | 175° |
| 2026-04-25 23:56 | 49.43257 | -2.59909 | 331 ft | 5 kts | 90° |
| 2026-04-25 23:56 | 49.43258 | -2.59859 | 332 ft | 1 kts | 89° |
| 2026-04-25 23:57 | 49.43258 | -2.59850 | 333 ft | 0 kts | 88° |
| 2026-04-25 23:58 | 0.00000 | 0.00000 | 0 ft | 0 kts | 0° |
| 2026-04-25 23:58 | 49.43258 | -2.59850 | 333 ft | 0 kts | 88° |